sensor_id;sensor_type;location;lat;lon;timestamp;pressure;altitude;pressure_sealevel;temperature;humidity
74594;BME280;63097;51.872;4.460;2023-04-25T00:01:36;101367.59;;;6.82;80.79
74594;BME280;63097;51.872;4.460;2023-04-25T00:04:02;101364.66;;;6.77;82.91
74594;BME280;63097;51.872;4.460;2023-04-25T00:06:28;101373.34;;;6.81;81.62
74594;BME280;63097;51.872;4.460;2023-04-25T00:08:53;101367.41;;;6.77;81.58
74594;BME280;63097;51.872;4.460;2023-04-25T00:11:18;101359.72;;;6.79;81.04
74594;BME280;63097;51.872;4.460;2023-04-25T00:13:44;101370.81;;;6.73;82.02
74594;BME280;63097;51.872;4.460;2023-04-25T00:16:09;101360.41;;;6.55;82.80
74594;BME280;63097;51.872;4.460;2023-04-25T00:18:34;101364.22;;;6.67;81.48
74594;BME280;63097;51.872;4.460;2023-04-25T00:20:59;101365.31;;;6.40;83.00
74594;BME280;63097;51.872;4.460;2023-04-25T00:23:25;101375.47;;;6.72;81.00
74594;BME280;63097;51.872;4.460;2023-04-25T00:25:50;101375.94;;;6.37;82.93
74594;BME280;63097;51.872;4.460;2023-04-25T00:28:16;101380.19;;;6.13;83.85
74594;BME280;63097;51.872;4.460;2023-04-25T00:30:42;101381.22;;;5.92;84.74
74594;BME280;63097;51.872;4.460;2023-04-25T00:33:08;101372.00;;;5.72;85.83
74594;BME280;63097;51.872;4.460;2023-04-25T00:35:34;101366.91;;;5.76;85.65
74594;BME280;63097;51.872;4.460;2023-04-25T00:37:59;101376.94;;;5.90;85.40
74594;BME280;63097;51.872;4.460;2023-04-25T00:40:25;101376.94;;;5.83;84.92
74594;BME280;63097;51.872;4.460;2023-04-25T00:42:54;101377.81;;;5.84;84.63
74594;BME280;63097;51.872;4.460;2023-04-25T00:45:20;101376.94;;;5.90;84.41
74594;BME280;63097;51.872;4.460;2023-04-25T00:47:45;101383.75;;;5.87;83.61
74594;BME280;63097;51.872;4.460;2023-04-25T00:50:12;101383.97;;;5.86;84.12
74594;BME280;63097;51.872;4.460;2023-04-25T00:52:38;101380.03;;;5.61;84.74
74594;BME280;63097;51.872;4.460;2023-04-25T00:55:05;101376.56;;;5.46;86.20
74594;BME280;63097;51.872;4.460;2023-04-25T00:57:30;101385.09;;;5.51;86.29
74594;BME280;63097;51.872;4.460;2023-04-25T00:59:56;101382.78;;;5.61;85.36
74594;BME280;63097;51.872;4.460;2023-04-25T01:02:21;101394.94;;;5.79;84.32
74594;BME280;63097;51.872;4.460;2023-04-25T01:04:48;101399.72;;;6.18;82.13
74594;BME280;63097;51.872;4.460;2023-04-25T01:07:14;101392.94;;;6.21;82.01
74594;BME280;63097;51.872;4.460;2023-04-25T01:09:39;101384.22;;;6.24;82.47
74594;BME280;63097;51.872;4.460;2023-04-25T01:12:04;101387.00;;;6.37;80.88
74594;BME280;63097;51.872;4.460;2023-04-25T01:14:30;101396.13;;;6.31;81.63
74594;BME280;63097;51.872;4.460;2023-04-25T01:16:56;101395.91;;;6.26;82.56
74594;BME280;63097;51.872;4.460;2023-04-25T01:19:21;101399.50;;;6.20;82.90
74594;BME280;63097;51.872;4.460;2023-04-25T01:21:46;101400.38;;;6.27;82.58
74594;BME280;63097;51.872;4.460;2023-04-25T01:24:12;101390.38;;;6.32;80.87
74594;BME280;63097;51.872;4.460;2023-04-25T01:26:38;101397.41;;;6.35;80.24
74594;BME280;63097;51.872;4.460;2023-04-25T01:29:04;101405.69;;;6.67;78.51
74594;BME280;63097;51.872;4.460;2023-04-25T01:31:30;101407.81;;;6.72;79.02
74594;BME280;63097;51.872;4.460;2023-04-25T01:33:57;101405.06;;;6.52;79.32
74594;BME280;63097;51.872;4.460;2023-04-25T01:36:22;101403.16;;;6.53;79.37
74594;BME280;63097;51.872;4.460;2023-04-25T01:38:47;101405.91;;;6.53;79.74
74594;BME280;63097;51.872;4.460;2023-04-25T01:41:14;101401.88;;;6.49;80.06
74594;BME280;63097;51.872;4.460;2023-04-25T01:43:39;101416.13;;;6.46;79.73
74594;BME280;63097;51.872;4.460;2023-04-25T01:46:05;101402.72;;;6.75;75.97
74594;BME280;63097;51.872;4.460;2023-04-25T01:48:31;101399.94;;;6.75;75.84
74594;BME280;63097;51.872;4.460;2023-04-25T01:50:56;101408.66;;;6.72;75.10
74594;BME280;63097;51.872;4.460;2023-04-25T01:53:22;101418.66;;;6.86;73.69
74594;BME280;63097;51.872;4.460;2023-04-25T01:55:47;101422.25;;;6.87;72.54
74594;BME280;63097;51.872;4.460;2023-04-25T01:58:12;101426.53;;;6.57;74.99
74594;BME280;63097;51.872;4.460;2023-04-25T02:00:38;101419.75;;;6.46;74.68
74594;BME280;63097;51.872;4.460;2023-04-25T02:03:04;101425.03;;;6.35;76.39
74594;BME280;63097;51.872;4.460;2023-04-25T02:05:34;101422.72;;;6.51;75.47
74594;BME280;63097;51.872;4.460;2023-04-25T02:07:59;101425.47;;;6.71;73.46
74594;BME280;63097;51.872;4.460;2023-04-25T02:10:25;101415.66;;;6.88;71.78
74594;BME280;63097;51.872;4.460;2023-04-25T02:12:50;101420.16;;;6.69;73.15
74594;BME280;63097;51.872;4.460;2023-04-25T02:15:15;101415.88;;;6.80;71.81
74594;BME280;63097;51.872;4.460;2023-04-25T02:17:41;101416.31;;;6.70;72.44
74594;BME280;63097;51.872;4.460;2023-04-25T02:20:06;101412.28;;;6.66;72.89
74594;BME280;63097;51.872;4.460;2023-04-25T02:22:31;101417.56;;;6.87;72.08
74594;BME280;63097;51.872;4.460;2023-04-25T02:24:57;101415.88;;;6.99;71.03
74594;BME280;63097;51.872;4.460;2023-04-25T02:27:22;101419.31;;;6.75;72.80
74594;BME280;63097;51.872;4.460;2023-04-25T02:29:47;101429.91;;;6.85;72.15
74594;BME280;63097;51.872;4.460;2023-04-25T02:32:13;101421.41;;;6.86;72.11
74594;BME280;63097;51.872;4.460;2023-04-25T02:34:38;101431.41;;;6.74;71.82
74594;BME280;63097;51.872;4.460;2023-04-25T02:37:03;101425.25;;;6.92;70.68
74594;BME280;63097;51.872;4.460;2023-04-25T02:39:29;101427.38;;;6.70;72.57
74594;BME280;63097;51.872;4.460;2023-04-25T02:41:54;101429.94;;;6.78;71.52
74594;BME280;63097;51.872;4.460;2023-04-25T02:44:19;101424.41;;;6.72;71.49
74594;BME280;63097;51.872;4.460;2023-04-25T02:46:44;101425.25;;;6.59;73.01
74594;BME280;63097;51.872;4.460;2023-04-25T02:49:10;101424.19;;;6.60;73.02
74594;BME280;63097;51.872;4.460;2023-04-25T02:51:35;101431.84;;;6.71;72.23
74594;BME280;63097;51.872;4.460;2023-04-25T02:54:00;101426.94;;;6.54;75.07
74594;BME280;63097;51.872;4.460;2023-04-25T02:56:26;101429.09;;;6.52;75.62
74594;BME280;63097;51.872;4.460;2023-04-25T02:58:52;101440.13;;;6.58;73.60
74594;BME280;63097;51.872;4.460;2023-04-25T03:01:17;101429.94;;;6.46;75.06
74594;BME280;63097;51.872;4.460;2023-04-25T03:03:43;101423.13;;;6.35;75.54
74594;BME280;63097;51.872;4.460;2023-04-25T03:06:08;101427.56;;;6.23;76.66
74594;BME280;63097;51.872;4.460;2023-04-25T03:08:33;101423.72;;;6.11;77.02
74594;BME280;63097;51.872;4.460;2023-04-25T03:10:59;101423.50;;;5.99;76.80
74594;BME280;63097;51.872;4.460;2023-04-25T03:13:24;101423.06;;;6.02;76.68
74594;BME280;63097;51.872;4.460;2023-04-25T03:15:49;101426.03;;;6.01;76.62
74594;BME280;63097;51.872;4.460;2023-04-25T03:18:15;101432.59;;;5.93;78.81
74594;BME280;63097;51.872;4.460;2023-04-25T03:20:40;101429.19;;;5.85;78.89
74594;BME280;63097;51.872;4.460;2023-04-25T03:23:05;101431.72;;;5.86;78.17
74594;BME280;63097;51.872;4.460;2023-04-25T03:25:31;101433.84;;;5.84;78.91
74594;BME280;63097;51.872;4.460;2023-04-25T03:27:56;101433.44;;;5.87;78.32
74594;BME280;63097;51.872;4.460;2023-04-25T03:30:21;101436.00;;;5.89;79.34
74594;BME280;63097;51.872;4.460;2023-04-25T03:32:47;101431.53;;;5.88;79.13
74594;BME280;63097;51.872;4.460;2023-04-25T03:35:12;101437.03;;;5.88;80.11
74594;BME280;63097;51.872;4.460;2023-04-25T03:37:37;101435.56;;;5.92;80.34
74594;BME280;63097;51.872;4.460;2023-04-25T03:40:03;101437.06;;;5.94;81.02
74594;BME280;63097;51.872;4.460;2023-04-25T03:42:28;101431.34;;;6.02;78.74
74594;BME280;63097;51.872;4.460;2023-04-25T03:44:53;101434.56;;;6.06;78.88
74594;BME280;63097;51.872;4.460;2023-04-25T03:47:19;101431.56;;;6.01;79.20
74594;BME280;63097;51.872;4.460;2023-04-25T03:49:44;101437.50;;;5.98;79.98
74594;BME280;63097;51.872;4.460;2023-04-25T03:52:09;101435.78;;;5.97;80.08
74594;BME280;63097;51.872;4.460;2023-04-25T03:54:35;101448.56;;;5.98;80.20
74594;BME280;63097;51.872;4.460;2023-04-25T03:57:00;101447.91;;;5.96;80.66
74594;BME280;63097;51.872;4.460;2023-04-25T03:59:25;101451.31;;;5.98;80.07
74594;BME280;63097;51.872;4.460;2023-04-25T04:01:51;101448.19;;;6.21;79.45
74594;BME280;63097;51.872;4.460;2023-04-25T04:04:16;101457.94;;;6.17;80.90
74594;BME280;63097;51.872;4.460;2023-04-25T04:06:41;101456.03;;;6.10;80.78
74594;BME280;63097;51.872;4.460;2023-04-25T04:09:07;101458.16;;;6.15;80.38
74594;BME280;63097;51.872;4.460;2023-04-25T04:11:32;101459.25;;;6.47;78.86
74594;BME280;63097;51.872;4.460;2023-04-25T04:13:57;101478.41;;;6.74;77.53
74594;BME280;63097;51.872;4.460;2023-04-25T04:16:23;101476.31;;;6.70;73.51
74594;BME280;63097;51.872;4.460;2023-04-25T04:18:48;101479.03;;;6.44;76.17
74594;BME280;63097;51.872;4.460;2023-04-25T04:21:13;101475.91;;;5.86;80.24
74594;BME280;63097;51.872;4.460;2023-04-25T04:23:38;101467.69;;;5.59;81.34
74594;BME280;63097;51.872;4.460;2023-04-25T04:26:04;101471.16;;;5.67;81.25
74594;BME280;63097;51.872;4.460;2023-04-25T04:28:29;101467.94;;;5.64;82.01
74594;BME280;63097;51.872;4.460;2023-04-25T04:30:54;101468.09;;;5.56;83.69
74594;BME280;63097;51.872;4.460;2023-04-25T04:33:20;101474.84;;;5.47;83.08
74594;BME280;63097;51.872;4.460;2023-04-25T04:35:45;101471.47;;;5.51;82.88
74594;BME280;63097;51.872;4.460;2023-04-25T04:38:11;101471.75;;;5.63;80.28
74594;BME280;63097;51.872;4.460;2023-04-25T04:40:36;101470.22;;;5.54;80.60
74594;BME280;63097;51.872;4.460;2023-04-25T04:43:01;101474.69;;;5.55;81.05
74594;BME280;63097;51.872;4.460;2023-04-25T04:45:27;101478.34;;;5.68;81.46
74594;BME280;63097;51.872;4.460;2023-04-25T04:47:52;101484.31;;;5.72;80.06
74594;BME280;63097;51.872;4.460;2023-04-25T04:50:17;101481.59;;;5.78;80.19
74594;BME280;63097;51.872;4.460;2023-04-25T04:52:43;101494.84;;;5.89;80.10
74594;BME280;63097;51.872;4.460;2023-04-25T04:55:08;101498.16;;;5.78;82.22
74594;BME280;63097;51.872;4.460;2023-04-25T04:57:34;101498.56;;;5.75;82.37
74594;BME280;63097;51.872;4.460;2023-04-25T05:00:00;101491.34;;;5.74;83.00
74594;BME280;63097;51.872;4.460;2023-04-25T05:02:25;101491.66;;;5.99;80.04
74594;BME280;63097;51.872;4.460;2023-04-25T05:04:51;101499.72;;;5.87;80.51
74594;BME280;63097;51.872;4.460;2023-04-25T05:07:17;101504.28;;;5.74;81.74
74594;BME280;63097;51.872;4.460;2023-04-25T05:09:43;101496.41;;;5.71;80.21
74594;BME280;63097;51.872;4.460;2023-04-25T05:12:08;101508.56;;;5.76;79.41
74594;BME280;63097;51.872;4.460;2023-04-25T05:14:34;101508.69;;;5.62;80.80
74594;BME280;63097;51.872;4.460;2023-04-25T05:16:59;101517.56;;;5.57;80.20
74594;BME280;63097;51.872;4.460;2023-04-25T05:19:24;101525.63;;;5.59;80.76
74594;BME280;63097;51.872;4.460;2023-04-25T05:21:49;101516.84;;;5.76;81.61
74594;BME280;63097;51.872;4.460;2023-04-25T05:24:15;101527.88;;;6.24;78.82
74594;BME280;63097;51.872;4.460;2023-04-25T05:26:40;101535.13;;;6.31;80.60
74594;BME280;63097;51.872;4.460;2023-04-25T05:29:05;101534.69;;;6.34;78.94
74594;BME280;63097;51.872;4.460;2023-04-25T05:31:31;101537.28;;;6.49;78.87
74594;BME280;63097;51.872;4.460;2023-04-25T05:33:57;101541.34;;;6.46;78.28
74594;BME280;63097;51.872;4.460;2023-04-25T05:36:22;101547.44;;;6.29;79.15
74594;BME280;63097;51.872;4.460;2023-04-25T05:38:48;101553.22;;;6.40;78.76
74594;BME280;63097;51.872;4.460;2023-04-25T05:41:13;101552.72;;;6.17;79.42
74594;BME280;63097;51.872;4.460;2023-04-25T05:43:38;101559.13;;;6.24;78.52
74594;BME280;63097;51.872;4.460;2023-04-25T05:46:04;101555.06;;;6.20;80.19
74594;BME280;63097;51.872;4.460;2023-04-25T05:48:29;101568.31;;;6.44;79.57
74594;BME280;63097;51.872;4.460;2023-04-25T05:50:55;101568.00;;;6.99;77.35
74594;BME280;63097;51.872;4.460;2023-04-25T05:53:20;101567.56;;;7.22;75.76
74594;BME280;63097;51.872;4.460;2023-04-25T05:55:46;101572.25;;;7.08;76.92
74594;BME280;63097;51.872;4.460;2023-04-25T05:58:11;101577.34;;;7.11;76.25
74594;BME280;63097;51.872;4.460;2023-04-25T06:00:37;101576.91;;;6.95;77.19
74594;BME280;63097;51.872;4.460;2023-04-25T06:03:02;101579.66;;;6.82;77.35
74594;BME280;63097;51.872;4.460;2023-04-25T06:05:27;101581.63;;;7.01;74.97
74594;BME280;63097;51.872;4.460;2023-04-25T06:07:53;101589.91;;;7.14;73.92
74594;BME280;63097;51.872;4.460;2023-04-25T06:10:18;101582.25;;;7.09;76.48
74594;BME280;63097;51.872;4.460;2023-04-25T06:12:43;101588.84;;;7.28;75.11
74594;BME280;63097;51.872;4.460;2023-04-25T06:15:09;101589.69;;;7.16;75.96
74594;BME280;63097;51.872;4.460;2023-04-25T06:17:34;101601.41;;;7.37;72.69
74594;BME280;63097;51.872;4.460;2023-04-25T06:20:00;101596.09;;;7.23;70.45
74594;BME280;63097;51.872;4.460;2023-04-25T06:22:25;101602.44;;;7.03;72.86
74594;BME280;63097;51.872;4.460;2023-04-25T06:24:50;101609.50;;;6.99;72.60
74594;BME280;63097;51.872;4.460;2023-04-25T06:27:15;101609.28;;;7.01;72.69
74594;BME280;63097;51.872;4.460;2023-04-25T06:29:41;101617.97;;;6.98;72.63
74594;BME280;63097;51.872;4.460;2023-04-25T06:32:06;101621.56;;;6.85;72.87
74594;BME280;63097;51.872;4.460;2023-04-25T06:34:31;101617.97;;;6.98;72.10
74594;BME280;63097;51.872;4.460;2023-04-25T06:36:57;101621.16;;;6.95;72.96
74594;BME280;63097;51.872;4.460;2023-04-25T06:39:22;101624.34;;;7.05;73.47
74594;BME280;63097;51.872;4.460;2023-04-25T06:41:47;101621.22;;;7.34;72.17
74594;BME280;63097;51.872;4.460;2023-04-25T06:44:12;101633.97;;;7.35;72.44
74594;BME280;63097;51.872;4.460;2023-04-25T06:46:38;101631.41;;;7.60;71.49
74594;BME280;63097;51.872;4.460;2023-04-25T06:49:03;101632.91;;;7.69;72.04
74594;BME280;63097;51.872;4.460;2023-04-25T06:51:28;101632.66;;;7.96;71.08
74594;BME280;63097;51.872;4.460;2023-04-25T06:53:54;101640.06;;;8.02;70.47
74594;BME280;63097;51.872;4.460;2023-04-25T06:56:19;101642.75;;;8.35;67.18
74594;BME280;63097;51.872;4.460;2023-04-25T06:58:44;101646.66;;;8.28;67.52
74594;BME280;63097;51.872;4.460;2023-04-25T07:01:10;101644.75;;;8.08;69.68
74594;BME280;63097;51.872;4.460;2023-04-25T07:03:35;101658.72;;;8.46;69.40
74594;BME280;63097;51.872;4.460;2023-04-25T07:06:00;101654.16;;;8.71;65.93
74594;BME280;63097;51.872;4.460;2023-04-25T07:08:25;101650.28;;;8.72;68.39
74594;BME280;63097;51.872;4.460;2023-04-25T07:10:51;101659.56;;;8.53;70.05
74594;BME280;63097;51.872;4.460;2023-04-25T07:13:16;101655.28;;;8.51;69.96
74594;BME280;63097;51.872;4.460;2023-04-25T07:15:41;101661.06;;;8.49;69.10
74594;BME280;63097;51.872;4.460;2023-04-25T07:18:07;101655.69;;;8.54;69.37
74594;BME280;63097;51.872;4.460;2023-04-25T07:20:32;101658.59;;;8.08;70.48
74594;BME280;63097;51.872;4.460;2023-04-25T07:22:57;101653.25;;;8.20;69.62
74594;BME280;63097;51.872;4.460;2023-04-25T07:25:23;101665.59;;;8.24;69.05
74594;BME280;63097;51.872;4.460;2023-04-25T07:27:48;101665.03;;;8.66;70.09
74594;BME280;63097;51.872;4.460;2023-04-25T07:30:13;101659.00;;;9.13;69.17
74594;BME280;63097;51.872;4.460;2023-04-25T07:32:39;101660.44;;;9.23;68.51
74594;BME280;63097;51.872;4.460;2023-04-25T07:35:04;101657.97;;;9.39;67.70
74594;BME280;63097;51.872;4.460;2023-04-25T07:37:30;101666.06;;;9.65;66.29
74594;BME280;63097;51.872;4.460;2023-04-25T07:39:55;101662.81;;;9.93;65.95
74594;BME280;63097;51.872;4.460;2023-04-25T07:42:21;101662.38;;;9.96;63.47
74594;BME280;63097;51.872;4.460;2023-04-25T07:44:46;101670.78;;;10.32;61.98
74594;BME280;63097;51.872;4.460;2023-04-25T07:47:11;101665.06;;;10.63;61.06
74594;BME280;63097;51.872;4.460;2023-04-25T07:49:37;101668.47;;;10.65;57.65
74594;BME280;63097;51.872;4.460;2023-04-25T07:52:04;101669.44;;;11.19;57.40
74594;BME280;63097;51.872;4.460;2023-04-25T07:54:29;101670.34;;;10.83;55.68
74594;BME280;63097;51.872;4.460;2023-04-25T07:56:55;101672.06;;;10.66;57.50
74594;BME280;63097;51.872;4.460;2023-04-25T07:59:20;101674.44;;;10.08;59.11
74594;BME280;63097;51.872;4.460;2023-04-25T08:01:45;101683.44;;;10.10;58.67
74594;BME280;63097;51.872;4.460;2023-04-25T08:04:11;101691.81;;;9.79;60.22
74594;BME280;63097;51.872;4.460;2023-04-25T08:06:36;101692.88;;;9.78;57.84
74594;BME280;63097;51.872;4.460;2023-04-25T08:09:02;101701.06;;;9.73;56.41
74594;BME280;63097;51.872;4.460;2023-04-25T08:11:27;101695.97;;;10.37;58.22
74594;BME280;63097;51.872;4.460;2023-04-25T08:13:52;101697.78;;;11.27;54.48
74594;BME280;63097;51.872;4.460;2023-04-25T08:16:18;101699.97;;;10.77;53.28
74594;BME280;63097;51.872;4.460;2023-04-25T08:18:43;101705.31;;;10.25;54.73
74594;BME280;63097;51.872;4.460;2023-04-25T08:21:08;101706.78;;;10.02;56.03
74594;BME280;63097;51.872;4.460;2023-04-25T08:23:34;101716.56;;;9.87;57.79
74594;BME280;63097;51.872;4.460;2023-04-25T08:25:59;101723.97;;;9.93;56.52
74594;BME280;63097;51.872;4.460;2023-04-25T08:28:24;101726.56;;;9.63;58.20
74594;BME280;63097;51.872;4.460;2023-04-25T08:30:50;101729.56;;;9.62;59.14
74594;BME280;63097;51.872;4.460;2023-04-25T08:33:15;101733.84;;;9.58;57.54
74594;BME280;63097;51.872;4.460;2023-04-25T08:35:40;101745.59;;;9.29;58.98
74594;BME280;63097;51.872;4.460;2023-04-25T08:38:05;101743.03;;;9.34;57.11
74594;BME280;63097;51.872;4.460;2023-04-25T08:40:35;101742.72;;;9.48;56.56
74594;BME280;63097;51.872;4.460;2023-04-25T08:43:03;101741.69;;;9.67;55.46
74594;BME280;63097;51.872;4.460;2023-04-25T08:45:31;101746.31;;;10.04;55.05
74594;BME280;63097;51.872;4.460;2023-04-25T08:47:57;101753.06;;;10.40;52.96
74594;BME280;63097;51.872;4.460;2023-04-25T08:50:23;101754.50;;;10.24;53.35
74594;BME280;63097;51.872;4.460;2023-04-25T08:52:50;101761.06;;;10.72;51.95
74594;BME280;63097;51.872;4.460;2023-04-25T08:55:15;101774.44;;;10.82;51.86
74594;BME280;63097;51.872;4.460;2023-04-25T08:57:41;101774.50;;;10.75;52.62
74594;BME280;63097;51.872;4.460;2023-04-25T09:00:07;101778.75;;;10.17;54.33
74594;BME280;63097;51.872;4.460;2023-04-25T09:02:33;101778.81;;;10.10;53.36
74594;BME280;63097;51.872;4.460;2023-04-25T09:04:59;101776.66;;;10.06;53.20
74594;BME280;63097;51.872;4.460;2023-04-25T09:07:24;101780.69;;;10.35;54.77
74594;BME280;63097;51.872;4.460;2023-04-25T09:09:49;101783.47;;;10.77;53.17
74594;BME280;63097;51.872;4.460;2023-04-25T09:12:15;101794.06;;;10.26;53.53
74594;BME280;63097;51.872;4.460;2023-04-25T09:14:41;101794.13;;;10.20;53.83
74594;BME280;63097;51.872;4.460;2023-04-25T09:17:06;101796.16;;;10.31;53.61
74594;BME280;63097;51.872;4.460;2023-04-25T09:19:33;101795.69;;;10.58;52.37
74594;BME280;63097;51.872;4.460;2023-04-25T09:22:01;101803.66;;;10.73;53.45
74594;BME280;63097;51.872;4.460;2023-04-25T09:24:45;101795.19;;;11.63;52.00
74594;BME280;63097;51.872;4.460;2023-04-25T09:27:11;101803.69;;;11.39;51.21
74594;BME280;63097;51.872;4.460;2023-04-25T09:29:39;101804.31;;;11.41;51.48
74594;BME280;63097;51.872;4.460;2023-04-25T09:34:45;101807.44;;;10.78;48.42
74594;BME280;63097;51.872;4.460;2023-04-25T09:37:11;101815.31;;;10.39;49.65
74594;BME280;63097;51.872;4.460;2023-04-25T09:39:37;101815.28;;;10.21;51.91
74594;BME280;63097;51.872;4.460;2023-04-25T09:42:04;101807.66;;;11.31;47.38
74594;BME280;63097;51.872;4.460;2023-04-25T09:44:30;101815.56;;;12.05;47.41
74594;BME280;63097;51.872;4.460;2023-04-25T09:46:55;101828.13;;;12.95;44.02
74594;BME280;63097;51.872;4.460;2023-04-25T09:49:21;101826.56;;;13.10;43.59
74594;BME280;63097;51.872;4.460;2023-04-25T09:51:59;101824.03;;;12.51;44.48
74594;BME280;63097;51.872;4.460;2023-04-25T09:54:25;101825.56;;;12.24;44.24
74594;BME280;63097;51.872;4.460;2023-04-25T09:56:53;101827.00;;;13.31;42.52
74594;BME280;63097;51.872;4.460;2023-04-25T09:59:22;101833.16;;;13.44;44.35
74594;BME280;63097;51.872;4.460;2023-04-25T10:01:48;101827.41;;;14.07;44.00
74594;BME280;63097;51.872;4.460;2023-04-25T10:04:18;101836.28;;;13.59;43.05
74594;BME280;63097;51.872;4.460;2023-04-25T10:06:45;101841.16;;;14.08;42.11
74594;BME280;63097;51.872;4.460;2023-04-25T10:09:12;101834.88;;;14.18;42.42
74594;BME280;63097;51.872;4.460;2023-04-25T10:11:39;101839.41;;;14.69;39.41
74594;BME280;63097;51.872;4.460;2023-04-25T10:14:05;101845.34;;;13.66;41.45
74594;BME280;63097;51.872;4.460;2023-04-25T10:16:31;101848.41;;;12.44;44.89
74594;BME280;63097;51.872;4.460;2023-04-25T10:18:57;101852.75;;;12.40;43.46
74594;BME280;63097;51.872;4.460;2023-04-25T10:21:23;101847.19;;;12.40;42.88
74594;BME280;63097;51.872;4.460;2023-04-25T10:23:49;101852.94;;;12.68;44.17
74594;BME280;63097;51.872;4.460;2023-04-25T10:26:15;101854.91;;;12.15;45.96
74594;BME280;63097;51.872;4.460;2023-04-25T10:29:07;101856.31;;;12.70;44.71
74594;BME280;63097;51.872;4.460;2023-04-25T10:31:32;101852.72;;;13.44;42.89
74594;BME280;63097;51.872;4.460;2023-04-25T10:33:59;101853.09;;;14.49;41.87
74594;BME280;63097;51.872;4.460;2023-04-25T10:36:25;101850.22;;;15.37;38.37
74594;BME280;63097;51.872;4.460;2023-04-25T10:38:51;101845.66;;;15.95;39.70
74594;BME280;63097;51.872;4.460;2023-04-25T10:41:20;101858.59;;;14.93;39.84
74594;BME280;63097;51.872;4.460;2023-04-25T10:43:47;101865.06;;;13.20;39.86
74594;BME280;63097;51.872;4.460;2023-04-25T10:46:22;101866.50;;;13.34;40.76
74594;BME280;63097;51.872;4.460;2023-04-25T10:48:58;101857.44;;;14.11;40.81
74594;BME280;63097;51.872;4.460;2023-04-25T10:53:59;101849.28;;;14.55;38.62
74594;BME280;63097;51.872;4.460;2023-04-25T10:56:32;101851.09;;;15.37;39.38
74594;BME280;63097;51.872;4.460;2023-04-25T10:59:11;101856.13;;;14.97;39.55
74594;BME280;63097;51.872;4.460;2023-04-25T11:01:41;101856.63;;;13.43;41.78
74594;BME280;63097;51.872;4.460;2023-04-25T11:04:20;101869.81;;;13.20;41.41
74594;BME280;63097;51.872;4.460;2023-04-25T11:09:46;101847.00;;;14.52;40.23
74594;BME280;63097;51.872;4.460;2023-04-25T11:12:11;101851.25;;;15.47;40.25
74594;BME280;63097;51.872;4.460;2023-04-25T11:14:36;101853.31;;;16.32;38.41
74594;BME280;63097;51.872;4.460;2023-04-25T11:17:02;101867.00;;;15.96;39.24
74594;BME280;63097;51.872;4.460;2023-04-25T11:19:28;101854.78;;;15.86;40.09
74594;BME280;63097;51.872;4.460;2023-04-25T11:21:58;101865.78;;;17.14;36.87
74594;BME280;63097;51.872;4.460;2023-04-25T11:24:31;101864.06;;;17.03;36.41
74594;BME280;63097;51.872;4.460;2023-04-25T11:26:58;101869.13;;;15.25;40.06
74594;BME280;63097;51.872;4.460;2023-04-25T11:29:26;101890.69;;;12.94;43.51
74594;BME280;63097;51.872;4.460;2023-04-25T11:31:52;101882.91;;;13.19;45.16
74594;BME280;63097;51.872;4.460;2023-04-25T11:34:18;101903.00;;;13.56;47.82
74594;BME280;63097;51.872;4.460;2023-04-25T11:36:45;101885.94;;;12.60;52.29
74594;BME280;63097;51.872;4.460;2023-04-25T11:39:10;101892.34;;;11.78;50.95
74594;BME280;63097;51.872;4.460;2023-04-25T11:41:37;101888.66;;;11.66;53.18
74594;BME280;63097;51.872;4.460;2023-04-25T11:44:03;101889.69;;;12.12;51.65
74594;BME280;63097;51.872;4.460;2023-04-25T11:46:29;101892.38;;;12.72;46.43
74594;BME280;63097;51.872;4.460;2023-04-25T11:48:55;101894.59;;;13.95;43.04
74594;BME280;63097;51.872;4.460;2023-04-25T11:51:20;101893.88;;;14.94;40.57
74594;BME280;63097;51.872;4.460;2023-04-25T11:53:46;101897.78;;;16.13;39.25
74594;BME280;63097;51.872;4.460;2023-04-25T11:56:12;101890.03;;;16.83;35.93
74594;BME280;63097;51.872;4.460;2023-04-25T11:59:01;101905.38;;;15.31;39.42
74594;BME280;63097;51.872;4.460;2023-04-25T12:04:09;101905.53;;;16.54;35.55
74594;BME280;63097;51.872;4.460;2023-04-25T12:06:39;101899.00;;;16.22;37.00
74594;BME280;63097;51.872;4.460;2023-04-25T12:09:07;101905.63;;;16.64;37.39
74594;BME280;63097;51.872;4.460;2023-04-25T12:11:43;101908.56;;;17.16;35.11
74594;BME280;63097;51.872;4.460;2023-04-25T12:14:09;101900.78;;;17.28;34.12
74594;BME280;63097;51.872;4.460;2023-04-25T12:16:45;101913.75;;;17.86;33.56
74594;BME280;63097;51.872;4.460;2023-04-25T12:19:14;101896.84;;;17.34;34.50
74594;BME280;63097;51.872;4.460;2023-04-25T12:21:39;101906.06;;;18.48;33.21
74594;BME280;63097;51.872;4.460;2023-04-25T12:24:15;101903.19;;;19.59;30.77
74594;BME280;63097;51.872;4.460;2023-04-25T12:26:57;101902.16;;;18.49;31.36
74594;BME280;63097;51.872;4.460;2023-04-25T12:29:24;101919.88;;;16.31;36.15
74594;BME280;63097;51.872;4.460;2023-04-25T12:31:51;101914.09;;;14.47;40.02
74594;BME280;63097;51.872;4.460;2023-04-25T12:34:17;101912.88;;;15.26;37.23
74594;BME280;63097;51.872;4.460;2023-04-25T12:36:43;101911.78;;;17.40;34.21
74594;BME280;63097;51.872;4.460;2023-04-25T12:39:08;101916.59;;;17.91;34.27
74594;BME280;63097;51.872;4.460;2023-04-25T12:41:39;101925.84;;;15.91;37.64
74594;BME280;63097;51.872;4.460;2023-04-25T12:44:04;101939.34;;;13.95;40.30
74594;BME280;63097;51.872;4.460;2023-04-25T12:46:29;101933.47;;;13.29;41.53
74594;BME280;63097;51.872;4.460;2023-04-25T12:48:55;101933.13;;;14.94;40.04
74594;BME280;63097;51.872;4.460;2023-04-25T12:51:20;101930.59;;;16.61;36.91
74594;BME280;63097;51.872;4.460;2023-04-25T12:53:45;101923.81;;;16.57;35.03
74594;BME280;63097;51.872;4.460;2023-04-25T12:56:10;101924.31;;;16.80;35.62
74594;BME280;63097;51.872;4.460;2023-04-25T12:58:36;101923.84;;;18.44;32.54
74594;BME280;63097;51.872;4.460;2023-04-25T13:01:01;101930.69;;;17.96;32.44
74594;BME280;63097;51.872;4.460;2023-04-25T13:03:26;101924.94;;;19.43;31.14